Time,TemperatureF,DewpointF,PressureIn,WindDirection,WindDirectionDegrees,WindSpeedMPH,WindSpeedGustMPH,Humidity,HourlyPrecipIn,Conditions,Clouds,dailyrainin,SoftwareType,DateUTC
2013-11-23 00:01:00,34.7,30.9,30.13,West,276,2.3,0.0,86,0.00,RA,,0.00,WeatherDisplay:10.37,2013-11-23 05:01:00,
2013-11-23 00:02:00,34.7,30.9,30.13,WNW,293,8.0,8.0,86,0.00,RA,,0.00,WeatherDisplay:10.37,2013-11-23 05:02:00,
2013-11-23 00:03:00,34.7,31.2,30.13,West,267,3.5,0.0,87,0.00,RA,,0.00,WeatherDisplay:10.37,2013-11-23 05:03:00,
2013-11-23 00:08:00,34.5,30.7,30.13,West,275,10.4,10.4,86,0.00,RA,,0.00,WeatherDisplay:10.37,2013-11-23 05:08:00,
2013-11-23 00:13:00,34.5,31.0,30.13,WNW,293,3.5,3.5,87,0.00,CLR,,0.00,WeatherDisplay:10.37,2013-11-23 05:13:00,
2013-11-23 00:18:00,34.4,30.9,30.13,NW,314,4.6,4.6,87,0.00,CLR,,0.00,WeatherDisplay:10.37,2013-11-23 05:18:00,
2013-11-23 00:23:00,34.3,30.5,30.13,NNW,338,5.8,5.8,86,0.00,CLR,,0.00,WeatherDisplay:10.37,2013-11-23 05:23:00,
2013-11-23 00:28:00,34.1,30.6,30.14,WSW,257,2.3,2.3,87,0.00,CLR,,0.00,WeatherDisplay:10.37,2013-11-23 05:28:00,
2013-11-23 00:33:00,34.1,30.4,30.14,NW,322,6.9,6.9,86,0.00,CLR,,0.00,WeatherDisplay:10.37,2013-11-23 05:33:00,
2013-11-23 00:38:00,33.9,30.2,30.14,NW,325,5.0,5.0,86,0.00,CLR,,0.00,WeatherDisplay:10.37,2013-11-23 05:38:00,
2013-11-23 00:43:00,33.8,30.1,30.14,NE,53,3.5,3.5,86,0.00,CLR,,0.00,WeatherDisplay:10.37,2013-11-23 05:43:00,
2013-11-23 00:48:00,33.7,30.0,30.13,WSW,256,5.0,5.0,86,0.00,CLR,,0.00,WeatherDisplay:10.37,2013-11-23 05:48:00,
2013-11-23 00:53:00,33.6,29.6,30.14,WSW,253,8.1,8.1,85,0.00,CLR,,0.00,WeatherDisplay:10.37,2013-11-23 05:53:00,
2013-11-23 00:58:00,33.5,29.5,30.14,West,264,8.1,8.1,85,0.00,CLR,,0.00,WeatherDisplay:10.37,2013-11-23 05:58:00,
2013-11-23 01:03:00,33.4,29.4,30.14,WNW,283,11.5,11.5,85,0.00,CLR,,0.00,WeatherDisplay:10.37,2013-11-23 06:03:00,
2013-11-23 01:08:00,33.3,29.6,30.15,NNW,338,4.6,4.6,86,0.00,CLR,,0.00,WeatherDisplay:10.37,2013-11-23 06:08:00,
2013-11-23 01:13:00,33.2,29.2,30.15,West,278,6.9,6.9,85,0.00,CLR,,0.00,WeatherDisplay:10.37,2013-11-23 06:13:00,
2013-11-23 01:18:00,33.1,29.1,30.15,WNW,288,4.6,4.6,85,0.00,CLR,,0.00,WeatherDisplay:10.37,2013-11-23 06:18:00,
2013-11-23 01:23:00,32.9,29.2,30.16,West,264,4.0,4.0,86,0.00,CLR,,0.00,WeatherDisplay:10.37,2013-11-23 06:23:00,
2013-11-23 01:28:00,32.8,28.8,30.16,WNW,302,3.5,3.5,85,0.00,CLR,,0.00,WeatherDisplay:10.37,2013-11-23 06:28:00,
2013-11-23 01:33:00,32.7,29.0,30.15,NW,313,7.0,7.0,86,0.00,CLR,,0.00,WeatherDisplay:10.37,2013-11-23 06:33:00,
2013-11-23 01:38:00,32.7,28.7,30.16,WNW,290,5.0,5.0,85,0.00,CLR,,0.00,WeatherDisplay:10.37,2013-11-23 06:38:00,
2013-11-23 01:43:00,32.7,28.7,30.16,NNW,348,4.6,4.6,85,0.00,CLR,,0.00,WeatherDisplay:10.37,2013-11-23 06:43:00,
2013-11-23 01:48:00,32.6,28.6,30.16,WNW,297,4.6,4.6,85,0.00,CLR,,0.00,WeatherDisplay:10.37,2013-11-23 06:48:00,
2013-11-23 01:53:00,32.6,28.3,30.16,SW,236,10.4,10.4,84,0.00,CLR,,0.00,WeatherDisplay:10.37,2013-11-23 06:53:00,
2013-11-23 01:58:00,32.6,28.3,30.16,WNW,292,5.8,5.8,84,0.00,CLR,,0.00,WeatherDisplay:10.37,2013-11-23 06:58:00,
2013-11-23 02:03:00,32.6,28.6,30.16,WNW,283,8.1,8.1,85,0.00,CLR,,0.00,WeatherDisplay:10.37,2013-11-23 07:03:00,
2013-11-23 02:08:00,32.6,28.9,30.16,West,263,5.8,5.8,86,0.00,CLR,,0.00,WeatherDisplay:10.37,2013-11-23 07:08:00,
2013-11-23 02:13:00,32.5,28.8,30.16,East,89,3.5,3.5,86,0.00,CLR,,0.00,WeatherDisplay:10.37,2013-11-23 07:13:00,
2013-11-23 02:18:00,32.5,28.8,30.16,WNW,302,4.6,4.6,86,0.00,CLR,,0.00,WeatherDisplay:10.37,2013-11-23 07:18:00,
2013-11-23 02:23:00,32.4,28.7,30.17,West,273,5.8,5.8,86,0.00,CLR,,0.00,WeatherDisplay:10.37,2013-11-23 07:23:00,
2013-11-23 02:28:00,32.4,28.7,30.17,West,277,3.5,3.5,86,0.00,CLR,,0.00,WeatherDisplay:10.37,2013-11-23 07:28:00,
2013-11-23 02:33:00,32.3,28.6,30.17,West,269,6.9,6.9,86,0.00,CLR,,0.00,WeatherDisplay:10.37,2013-11-23 07:33:00,
2013-11-23 02:38:00,32.3,28.9,30.17,WNW,299,4.0,4.0,87,0.00,CLR,,0.00,WeatherDisplay:10.37,2013-11-23 07:38:00,
2013-11-23 02:43:00,32.3,28.6,30.17,WNW,287,4.6,4.6,86,0.00,CLR,,0.00,WeatherDisplay:10.37,2013-11-23 07:43:00,
2013-11-23 02:48:00,32.2,28.5,30.17,NW,308,4.6,4.6,86,0.00,CLR,,0.00,WeatherDisplay:10.37,2013-11-23 07:48:00,
2013-11-23 02:53:00,32.2,28.5,30.17,West,263,4.6,4.6,86,0.00,CLR,,0.00,WeatherDisplay:10.37,2013-11-23 07:53:00,
2013-11-23 02:58:00,32.2,28.5,30.17,West,267,4.0,4.0,86,0.00,CLR,,0.00,WeatherDisplay:10.37,2013-11-23 07:58:00,
2013-11-23 03:03:00,32.1,28.4,30.17,WNW,287,4.6,4.6,86,0.00,CLR,,0.00,WeatherDisplay:10.37,2013-11-23 08:03:00,
2013-11-23 03:09:00,32.1,28.4,30.17,West,277,8.1,8.1,86,0.00,CLR,,0.00,WeatherDisplay:10.37,2013-11-23 08:09:00,
2013-11-23 03:14:00,32.1,28.4,30.17,WNW,284,2.3,2.3,86,0.00,CLR,,0.00,WeatherDisplay:10.37,2013-11-23 08:14:00,
2013-11-23 03:19:00,32.2,28.5,30.17,WNW,284,6.0,6.0,86,0.00,CLR,,0.00,WeatherDisplay:10.37,2013-11-23 08:19:00,
2013-11-23 03:24:00,32.2,28.2,30.17,WSW,241,8.1,8.1,85,0.00,CLR,,0.00,WeatherDisplay:10.37,2013-11-23 08:24:00,
2013-11-23 03:29:00,32.3,28.0,30.17,WSW,239,6.9,6.9,84,0.00,CLR,,0.00,WeatherDisplay:10.37,2013-11-23 08:29:00,
2013-11-23 03:34:00,32.2,27.3,30.16,West,268,9.2,9.2,82,0.00,CLR,,0.00,WeatherDisplay:10.37,2013-11-23 08:34:00,
2013-11-23 03:39:00,32.0,27.1,30.16,West,279,4.6,4.6,82,0.00,CLR,,0.00,WeatherDisplay:10.37,2013-11-23 08:39:00,
2013-11-23 03:44:00,31.9,27.0,30.16,NNW,333,3.5,6.2,82,0.00,CLR,,0.00,WeatherDisplay:10.37,2013-11-23 08:44:00,
2013-11-23 03:49:00,31.9,27.3,30.16,NW,318,8.1,8.1,83,0.00,CLR,,0.00,WeatherDisplay:10.37,2013-11-23 08:49:00,
2013-11-23 03:54:00,31.9,27.3,30.16,West,280,5.0,5.0,83,0.00,CLR,,0.00,WeatherDisplay:10.37,2013-11-23 08:54:00,
2013-11-23 03:59:00,31.9,27.6,30.16,SW,218,1.1,1.1,84,0.00,CLR,,0.00,WeatherDisplay:10.37,2013-11-23 08:59:00,
2013-11-23 04:04:00,31.9,27.6,30.16,WNW,289,3.0,3.0,84,0.00,,,0.00,WeatherDisplay:10.37,2013-11-23 09:04:00,
2013-11-23 04:09:00,31.8,27.5,30.16,West,274,3.0,3.0,84,0.00,,,0.00,WeatherDisplay:10.37,2013-11-23 09:09:00,
2013-11-23 04:14:00,31.7,27.4,30.16,SW,234,4.6,4.6,84,0.00,,,0.00,WeatherDisplay:10.37,2013-11-23 09:14:00,
2013-11-23 04:19:00,31.6,27.3,30.16,NNE,25,6.9,6.9,84,0.00,,,0.00,WeatherDisplay:10.37,2013-11-23 09:19:00,
2013-11-23 04:24:00,31.6,27.3,30.16,West,270,8.1,8.1,84,0.00,,,0.00,WeatherDisplay:10.37,2013-11-23 09:24:00,
2013-11-23 04:29:00,31.4,27.1,30.16,NW,325,4.6,4.6,84,0.00,,,0.00,WeatherDisplay:10.37,2013-11-23 09:29:00,
2013-11-23 04:34:00,31.4,27.4,30.16,WNW,289,3.5,3.5,85,0.00,,,0.00,WeatherDisplay:10.37,2013-11-23 09:34:00,
2013-11-23 04:39:00,31.3,27.3,30.16,West,275,0.0,0.0,85,0.00,,,0.00,WeatherDisplay:10.37,2013-11-23 09:39:00,
2013-11-23 04:44:00,31.3,27.3,30.16,WNW,298,0.0,0.0,85,0.00,,,0.00,WeatherDisplay:10.37,2013-11-23 09:44:00,
2013-11-23 04:49:00,31.3,27.3,30.16,WNW,293,3.5,3.5,85,0.00,,,0.00,WeatherDisplay:10.37,2013-11-23 09:49:00,
2013-11-23 04:54:00,31.2,27.2,30.16,WSW,248,4.6,4.6,85,0.00,,,0.00,WeatherDisplay:10.37,2013-11-23 09:54:00,
2013-11-23 04:59:00,31.2,26.9,30.16,NW,321,3.5,3.5,84,0.00,,,0.00,WeatherDisplay:10.37,2013-11-23 09:59:00,
2013-11-23 05:04:00,31.2,26.9,30.16,WSW,239,3.5,3.5,84,0.00,,,0.00,WeatherDisplay:10.37,2013-11-23 10:04:00,
2013-11-23 05:09:00,31.2,27.2,30.16,West,260,2.3,0.0,85,0.00,,,0.00,WeatherDisplay:10.37,2013-11-23 10:09:00,
2013-11-23 05:14:00,31.1,26.8,30.16,WNW,295,4.6,4.6,84,0.00,,,0.00,WeatherDisplay:10.37,2013-11-23 10:14:00,
2013-11-23 05:19:00,31.1,27.1,30.16,SW,225,2.0,2.0,85,0.00,,,0.00,WeatherDisplay:10.37,2013-11-23 10:19:00,
2013-11-23 05:24:00,31.0,26.7,30.15,WNW,297,1.1,1.1,84,0.00,,,0.00,WeatherDisplay:10.37,2013-11-23 10:24:00,
2013-11-23 05:29:00,31.1,26.8,30.15,SE,132,2.3,2.3,84,0.00,,,0.00,WeatherDisplay:10.37,2013-11-23 10:29:00,
2013-11-23 05:34:00,31.1,26.8,30.16,NW,324,3.0,0.0,84,0.00,,,0.00,WeatherDisplay:10.37,2013-11-23 10:34:00,
2013-11-23 05:39:00,31.0,26.7,30.16,WNW,297,2.3,2.3,84,0.00,,,0.00,WeatherDisplay:10.37,2013-11-23 10:39:00,
2013-11-23 05:44:00,31.0,26.7,30.16,SSE,153,0.0,0.0,84,0.00,,,0.00,WeatherDisplay:10.37,2013-11-23 10:44:00,
2013-11-23 05:49:00,31.0,27.0,30.16,West,271,1.1,1.1,85,0.00,,,0.00,WeatherDisplay:10.37,2013-11-23 10:49:00,
2013-11-23 05:54:00,31.0,27.0,30.15,WSW,246,0.0,0.0,85,0.00,,,0.00,WeatherDisplay:10.37,2013-11-23 10:54:00,
2013-11-23 05:59:00,30.9,26.9,30.15,WSW,239,0.0,0.0,85,0.00,,,0.00,WeatherDisplay:10.37,2013-11-23 10:59:00,
2013-11-23 06:04:00,30.9,26.9,30.15,WNW,285,0.0,0.0,85,0.00,,,0.00,WeatherDisplay:10.37,2013-11-23 11:04:00,
2013-11-23 06:09:00,30.9,26.9,30.15,West,259,0.0,0.0,85,0.00,,,0.00,WeatherDisplay:10.37,2013-11-23 11:09:00,
2013-11-23 06:14:00,30.9,27.2,30.15,WSW,255,0.0,0.0,86,0.00,,,0.00,WeatherDisplay:10.37,2013-11-23 11:14:00,
2013-11-23 06:19:00,30.9,27.2,30.15,West,277,0.0,0.0,86,0.00,,,0.00,WeatherDisplay:10.37,2013-11-23 11:19:00,
2013-11-23 06:24:00,30.9,26.9,30.15,WSW,249,3.5,3.5,85,0.00,,,0.00,WeatherDisplay:10.37,2013-11-23 11:24:00,
2013-11-23 06:29:00,31.0,27.3,30.15,West,262,0.0,0.0,86,0.00,,,0.00,WeatherDisplay:10.37,2013-11-23 11:29:00,
2013-11-23 06:34:00,31.0,27.3,30.15,West,275,1.1,1.1,86,0.00,,,0.00,WeatherDisplay:10.37,2013-11-23 11:34:00,
2013-11-23 06:39:00,31.1,27.4,30.15,WSW,256,0.0,0.0,86,0.00,,,0.00,WeatherDisplay:10.37,2013-11-23 11:39:00,
2013-11-23 06:44:00,31.1,27.1,30.15,NNW,328,4.6,4.6,85,0.00,,,0.00,WeatherDisplay:10.37,2013-11-23 11:44:00,
2013-11-23 06:49:00,31.2,27.2,30.15,WNW,293,1.1,1.1,85,0.00,,,0.00,WeatherDisplay:10.37,2013-11-23 11:49:00,
2013-11-23 06:54:00,31.2,27.2,30.15,SW,228,0.0,0.0,85,0.00,,,0.00,WeatherDisplay:10.37,2013-11-23 11:54:00,
2013-11-23 06:59:00,31.2,26.9,30.15,WSW,257,0.0,0.0,84,0.00,,,0.00,WeatherDisplay:10.37,2013-11-23 11:59:00,
2013-11-23 07:04:00,31.1,26.8,30.15,NW,315,3.5,3.5,84,0.00,CLR,,0.00,WeatherDisplay:10.37,2013-11-23 12:04:00,
2013-11-23 07:09:00,31.0,26.7,30.15,SE,145,0.0,0.1,84,0.00,CLR,,0.00,WeatherDisplay:10.37,2013-11-23 12:09:00,
2013-11-23 07:14:00,31.0,26.7,30.15,WNW,290,3.5,3.5,84,0.00,CLR,,0.00,WeatherDisplay:10.37,2013-11-23 12:14:00,
2013-11-23 07:19:00,31.0,27.0,30.15,West,265,0.0,0.0,85,0.00,CLR,,0.00,WeatherDisplay:10.37,2013-11-23 12:19:00,
2013-11-23 07:24:00,31.0,26.7,30.15,WNW,289,2.3,2.3,84,0.00,CLR,,0.00,WeatherDisplay:10.37,2013-11-23 12:24:00,
2013-11-23 07:29:00,30.9,26.6,30.15,NW,321,0.0,0.0,84,0.00,CLR,,0.00,WeatherDisplay:10.37,2013-11-23 12:29:00,
2013-11-23 07:34:00,31.0,26.4,30.15,West,278,3.5,3.5,83,0.00,CLR,,0.00,WeatherDisplay:10.37,2013-11-23 12:34:00,
2013-11-23 07:39:00,31.0,26.4,30.14,WSW,238,1.1,1.1,83,0.00,CLR,,0.00,WeatherDisplay:10.37,2013-11-23 12:39:00,
2013-11-23 07:44:00,31.0,26.4,30.15,NE,44,4.6,4.6,83,0.00,CLR,,0.00,WeatherDisplay:10.37,2013-11-23 12:44:00,
2013-11-23 07:49:00,31.1,25.7,30.14,North,356,5.8,5.8,80,0.00,CLR,,0.00,WeatherDisplay:10.37,2013-11-23 12:49:00,
2013-11-23 07:54:00,31.1,25.0,30.14,West,265,4.0,4.0,78,0.00,CLR,,0.00,WeatherDisplay:10.37,2013-11-23 12:54:00,
2013-11-23 07:59:00,31.2,25.4,30.14,WNW,301,4.6,4.6,79,0.00,CLR,,0.00,WeatherDisplay:10.37,2013-11-23 12:59:00,
2013-11-23 08:04:00,31.2,25.4,30.14,WSW,248,5.0,5.0,79,0.00,CLR,,0.00,WeatherDisplay:10.37,2013-11-23 13:04:00,
2013-11-23 08:09:00,31.1,24.7,30.14,SW,229,8.1,8.1,77,0.00,CLR,,0.00,WeatherDisplay:10.37,2013-11-23 13:09:00,
2013-11-23 08:14:00,31.0,24.6,30.13,West,265,3.5,0.0,77,0.00,CLR,,0.00,WeatherDisplay:10.37,2013-11-23 13:14:00,
2013-11-23 08:19:00,30.9,24.8,30.14,SW,224,5.8,5.8,78,0.00,CLR,,0.00,WeatherDisplay:10.37,2013-11-23 13:19:00,
2013-11-23 08:24:00,31.0,25.2,30.14,WSW,255,0.0,0.0,79,0.00,CLR,,0.00,WeatherDisplay:10.37,2013-11-23 13:24:00,
2013-11-23 08:29:00,31.0,25.6,30.13,SSE,150,0.0,0.3,80,0.00,CLR,,0.00,WeatherDisplay:10.37,2013-11-23 13:29:00,
2013-11-23 08:34:00,31.0,24.9,30.13,West,274,7.0,7.0,78,0.00,CLR,,0.00,WeatherDisplay:10.37,2013-11-23 13:34:00,
2013-11-23 08:39:00,31.0,24.9,30.13,WNW,295,4.6,4.6,78,0.00,CLR,,0.00,WeatherDisplay:10.37,2013-11-23 13:39:00,
2013-11-23 08:44:00,31.1,25.0,30.12,SW,225,0.0,0.0,78,0.00,CLR,,0.00,WeatherDisplay:10.37,2013-11-23 13:44:00,
2013-11-23 08:49:00,31.3,25.2,30.12,West,280,5.8,5.8,78,0.00,CLR,,0.00,WeatherDisplay:10.37,2013-11-23 13:49:00,
2013-11-23 08:54:00,31.5,25.1,30.11,West,278,0.0,0.0,77,0.00,CLR,,0.00,WeatherDisplay:10.37,2013-11-23 13:54:00,
2013-11-23 08:59:00,31.6,25.2,30.11,West,262,0.0,0.0,77,0.00,CLR,,0.00,WeatherDisplay:10.37,2013-11-23 13:59:00,
2013-11-23 09:04:00,31.7,24.4,30.11,WSW,256,4.6,4.6,74,0.00,CLR,,0.00,WeatherDisplay:10.37,2013-11-23 14:04:00,
2013-11-23 09:09:00,31.8,24.5,30.10,WNW,297,4.6,4.6,74,0.00,CLR,,0.00,WeatherDisplay:10.37,2013-11-23 14:09:00,
2013-11-23 09:14:00,32.0,25.0,30.10,WSW,246,3.5,3.5,75,0.00,CLR,,0.00,WeatherDisplay:10.37,2013-11-23 14:14:00,
2013-11-23 09:19:00,32.2,24.8,30.10,NNE,33,2.3,0.0,74,0.00,CLR,,0.00,WeatherDisplay:10.37,2013-11-23 14:19:00,
2013-11-23 09:24:00,32.4,25.0,30.10,West,266,3.5,3.5,74,0.00,CLR,,0.00,WeatherDisplay:10.37,2013-11-23 14:24:00,
2013-11-23 09:29:00,32.5,25.1,30.10,WSW,252,1.1,1.1,74,0.00,CLR,,0.00,WeatherDisplay:10.37,2013-11-23 14:29:00,
2013-11-23 09:34:00,32.7,25.6,30.10,WSW,243,3.5,3.5,75,0.00,CLR,,0.00,WeatherDisplay:10.37,2013-11-23 14:34:00,
2013-11-23 09:39:00,32.9,25.5,30.09,West,259,3.5,3.5,74,0.00,CLR,,0.00,WeatherDisplay:10.37,2013-11-23 14:39:00,
2013-11-23 09:44:00,33.2,25.8,30.09,WSW,242,2.0,2.0,74,0.00,CLR,,0.00,WeatherDisplay:10.37,2013-11-23 14:44:00,
2013-11-23 09:49:00,33.3,25.9,30.09,ESE,118,0.0,0.0,74,0.00,CLR,,0.00,WeatherDisplay:10.37,2013-11-23 14:49:00,
2013-11-23 09:54:00,33.3,25.2,30.08,West,262,3.5,0.0,72,0.00,CLR,,0.00,WeatherDisplay:10.37,2013-11-23 14:54:00,
2013-11-23 09:59:00,33.5,26.1,30.08,SW,233,2.3,2.3,74,0.00,CLR,,0.00,WeatherDisplay:10.37,2013-11-23 14:59:00,
2013-11-23 10:04:00,33.7,26.3,30.07,WSW,250,0.0,0.0,74,0.00,CLR,,0.00,WeatherDisplay:10.37,2013-11-23 15:04:00,
2013-11-23 10:09:00,33.9,26.2,30.07,West,267,0.0,0.0,73,0.00,CLR,,0.00,WeatherDisplay:10.37,2013-11-23 15:09:00,
2013-11-23 10:14:00,34.3,26.5,30.07,West,266,0.0,0.6,73,0.00,CLR,,0.00,WeatherDisplay:10.37,2013-11-23 15:14:00,
2013-11-23 10:19:00,34.3,26.2,30.06,West,265,3.0,3.0,72,0.00,CLR,,0.00,WeatherDisplay:10.37,2013-11-23 15:19:00,
2013-11-23 10:24:00,34.4,26.3,30.06,West,264,0.0,0.0,72,0.00,CLR,,0.00,WeatherDisplay:10.37,2013-11-23 15:24:00,
2013-11-23 10:29:00,34.7,26.6,30.06,South,188,0.0,0.0,72,0.00,CLR,,0.00,WeatherDisplay:10.37,2013-11-23 15:29:00,
2013-11-23 10:34:00,35.3,26.5,30.05,SW,219,8.1,8.1,70,0.00,CLR,,0.00,WeatherDisplay:10.37,2013-11-23 15:34:00,
2013-11-23 10:40:00,36.1,27.3,30.05,East,101,1.1,0.0,70,0.00,CLR,,0.00,WeatherDisplay:10.37,2013-11-23 15:40:00,
2013-11-23 10:45:00,36.4,27.2,30.05,WNW,283,3.5,3.5,69,0.00,CLR,,0.00,WeatherDisplay:10.37,2013-11-23 15:45:00,
2013-11-23 10:50:00,36.4,27.2,30.05,WNW,295,4.6,4.6,69,0.00,CLR,,0.00,WeatherDisplay:10.37,2013-11-23 15:50:00,
2013-11-23 10:55:00,36.3,26.7,30.04,ESE,112,3.5,3.5,68,0.00,CLR,,0.00,WeatherDisplay:10.37,2013-11-23 15:55:00,
2013-11-23 11:00:00,36.3,27.1,30.04,WNW,289,3.0,3.0,69,0.00,CLR,,0.00,WeatherDisplay:10.37,2013-11-23 16:00:00,
2013-11-23 11:05:00,36.4,26.8,30.04,WSW,257,4.6,4.6,68,0.00,CLR,,0.00,WeatherDisplay:10.37,2013-11-23 16:05:00,
2013-11-23 11:10:00,36.5,27.3,30.03,WNW,301,4.0,4.0,69,0.00,CLR,,0.00,WeatherDisplay:10.37,2013-11-23 16:10:00,
2013-11-23 11:15:00,36.7,27.5,30.03,West,280,7.0,7.0,69,0.00,CLR,,0.00,WeatherDisplay:10.37,2013-11-23 16:15:00,
2013-11-23 11:20:00,36.7,27.5,30.03,SW,236,3.5,3.5,69,0.00,CLR,,0.00,WeatherDisplay:10.37,2013-11-23 16:20:00,
2013-11-23 11:25:00,36.5,25.5,30.03,SW,222,10.4,10.4,64,0.00,CLR,,0.00,WeatherDisplay:10.37,2013-11-23 16:25:00,
2013-11-23 11:30:00,36.1,24.3,30.02,WSW,246,6.9,6.9,62,0.00,CLR,,0.00,WeatherDisplay:10.37,2013-11-23 16:30:00,
2013-11-23 11:35:00,36.0,21.8,30.01,SW,235,15.0,15.0,56,0.00,CLR,,0.00,WeatherDisplay:10.37,2013-11-23 16:35:00,
2013-11-23 11:40:00,36.1,21.0,30.01,WNW,285,10.4,10.4,54,0.00,CLR,,0.00,WeatherDisplay:10.37,2013-11-23 16:40:00,
2013-11-23 11:45:00,36.4,21.3,30.01,NNW,348,4.6,4.6,54,0.00,CLR,,0.00,WeatherDisplay:10.37,2013-11-23 16:45:00,
2013-11-23 11:50:00,36.7,20.7,30.01,NW,304,3.5,3.5,52,0.00,CLR,,0.00,WeatherDisplay:10.37,2013-11-23 16:50:00,
2013-11-23 11:55:00,36.8,19.4,30.00,WNW,299,10.0,10.0,49,0.00,CLR,,0.00,WeatherDisplay:10.37,2013-11-23 16:55:00,
2013-11-23 12:00:00,36.4,19.0,30.00,SW,232,9.2,9.2,49,0.00,CLR,,0.00,WeatherDisplay:10.37,2013-11-23 17:00:00,
2013-11-23 12:05:00,36.8,21.3,29.99,WNW,287,3.5,3.5,53,0.00,,,0.00,WeatherDisplay:10.37,2013-11-23 17:05:00,
2013-11-23 12:10:00,37.2,21.2,29.99,West,278,11.5,11.5,52,0.00,,,0.00,WeatherDisplay:10.37,2013-11-23 17:10:00,
2013-11-23 12:15:00,36.8,20.3,29.99,NW,309,11.5,11.5,51,0.00,,,0.00,WeatherDisplay:10.37,2013-11-23 17:15:00,
2013-11-23 12:20:00,36.5,20.5,29.99,West,281,9.2,9.2,52,0.00,,,0.00,WeatherDisplay:10.37,2013-11-23 17:20:00,
2013-11-23 12:25:00,36.2,20.7,29.99,West,267,4.6,4.6,53,0.00,,,0.00,WeatherDisplay:10.37,2013-11-23 17:25:00,
2013-11-23 12:30:00,36.0,22.2,29.99,WNW,287,10.4,10.4,57,0.00,,,0.00,WeatherDisplay:10.37,2013-11-23 17:30:00,
2013-11-23 12:35:00,35.6,23.1,29.99,West,281,11.0,11.0,60,0.00,,,0.00,WeatherDisplay:10.37,2013-11-23 17:35:00,
2013-11-23 12:40:00,35.5,23.8,29.99,West,281,11.5,11.5,62,0.00,,,0.00,WeatherDisplay:10.37,2013-11-23 17:40:00,
2013-11-23 12:46:00,35.3,25.1,29.99,West,260,2.3,2.3,66,0.00,,,0.00,WeatherDisplay:10.37,2013-11-23 17:46:00,
2013-11-23 12:51:00,35.4,25.9,29.99,NW,319,6.9,6.9,68,0.00,,,0.00,WeatherDisplay:10.37,2013-11-23 17:51:00,
2013-11-23 12:56:00,34.8,25.0,29.99,WNW,290,10.4,10.4,67,0.00,,,0.00,WeatherDisplay:10.37,2013-11-23 17:56:00,
2013-11-23 13:01:00,34.3,25.2,29.99,WSW,243,10.4,10.4,69,0.00,,,0.00,WeatherDisplay:10.37,2013-11-23 18:01:00,
2013-11-23 13:06:00,34.3,26.2,29.98,WNW,293,3.5,3.5,72,0.00,,,0.00,WeatherDisplay:10.37,2013-11-23 18:06:00,
2013-11-23 13:11:00,34.0,26.3,29.99,West,278,6.9,6.9,73,0.00,,,0.00,WeatherDisplay:10.37,2013-11-23 18:11:00,
2013-11-23 13:16:00,33.6,26.8,29.99,West,269,5.8,5.8,76,0.00,,,0.00,WeatherDisplay:10.37,2013-11-23 18:16:00,
2013-11-23 13:21:00,33.3,26.9,29.99,West,266,12.7,12.7,77,0.00,,,0.00,WeatherDisplay:10.37,2013-11-23 18:21:00,
2013-11-23 13:26:00,32.9,27.1,29.99,WSW,245,8.1,8.1,79,0.00,,,0.00,WeatherDisplay:10.37,2013-11-23 18:26:00,
2013-11-23 13:31:00,32.7,27.5,29.98,West,277,6.9,6.9,81,0.00,,,0.00,WeatherDisplay:10.37,2013-11-23 18:31:00,
2013-11-23 13:36:00,32.4,27.5,29.98,WNW,283,3.5,3.5,82,0.00,,,0.00,WeatherDisplay:10.37,2013-11-23 18:36:00,
2013-11-23 13:41:00,32.2,27.6,29.98,WNW,294,6.9,6.9,83,0.00,,,0.00,WeatherDisplay:10.37,2013-11-23 18:41:00,
2013-11-23 13:46:00,32.1,27.8,29.98,WNW,285,9.2,9.2,84,0.00,,,0.00,WeatherDisplay:10.37,2013-11-23 18:46:00,
2013-11-23 13:51:00,31.5,28.1,29.99,WSW,248,4.6,4.6,87,0.00,,,0.00,WeatherDisplay:10.37,2013-11-23 18:51:00,
2013-11-23 13:56:00,30.9,28.3,29.99,West,271,4.6,4.6,90,0.00,,,0.00,WeatherDisplay:10.37,2013-11-23 18:56:00,
2013-11-23 14:01:00,30.3,28.0,29.99,WNW,284,5.0,5.0,91,0.00,,,0.00,WeatherDisplay:10.37,2013-11-23 19:01:00,
2013-11-23 14:06:00,29.8,27.5,29.99,West,264,10.0,10.0,91,0.00,,,0.00,WeatherDisplay:10.37,2013-11-23 19:06:00,
2013-11-23 14:11:00,29.6,27.3,29.99,WSW,246,5.0,5.0,91,0.00,,,0.00,WeatherDisplay:10.37,2013-11-23 19:11:00,
2013-11-23 14:16:00,29.8,27.2,29.99,WNW,283,4.6,4.6,90,0.00,,,0.00,WeatherDisplay:10.37,2013-11-23 19:16:00,
2013-11-23 14:21:00,29.8,27.5,29.99,WNW,294,9.2,9.2,91,0.00,,,0.00,WeatherDisplay:10.37,2013-11-23 19:21:00,
2013-11-23 14:26:00,29.6,27.3,29.99,North,354,9.2,9.2,91,0.00,,,0.00,WeatherDisplay:10.37,2013-11-23 19:26:00,
2013-11-23 14:31:00,29.4,27.1,30.00,WNW,298,4.6,4.6,91,0.00,,,0.00,WeatherDisplay:10.37,2013-11-23 19:31:00,
2013-11-23 14:36:00,29.2,26.9,29.99,WNW,301,10.4,10.4,91,0.00,,,0.00,WeatherDisplay:10.37,2013-11-23 19:36:00,
2013-11-23 14:41:00,28.6,26.3,30.00,WSW,247,15.0,15.0,91,0.00,,,0.00,WeatherDisplay:10.37,2013-11-23 19:41:00,
2013-11-23 14:46:00,28.2,25.9,29.99,North,5,8.1,8.1,91,0.00,,,0.00,WeatherDisplay:10.37,2013-11-23 19:46:00,
2013-11-23 14:51:00,28.0,25.7,29.99,ENE,60,11.5,11.5,91,0.00,,,0.00,WeatherDisplay:10.37,2013-11-23 19:51:00,
2013-11-23 14:56:00,28.0,25.7,30.00,NW,307,9.2,9.2,91,0.00,,,0.00,WeatherDisplay:10.37,2013-11-23 19:56:00,
2013-11-23 15:01:00,28.2,25.9,30.00,WNW,295,4.0,4.0,91,0.00,,,0.00,WeatherDisplay:10.37,2013-11-23 20:01:00,
2013-11-23 15:06:00,28.1,25.8,30.00,WNW,282,8.1,8.1,91,0.00,CLR,,0.00,WeatherDisplay:10.37,2013-11-23 20:06:00,
2013-11-23 15:11:00,28.0,25.7,30.00,NNW,339,3.5,3.5,91,0.00,CLR,,0.00,WeatherDisplay:10.37,2013-11-23 20:11:00,
2013-11-23 15:16:00,27.9,25.6,30.00,West,267,11.5,11.5,91,0.00,CLR,,0.00,WeatherDisplay:10.37,2013-11-23 20:16:00,
2013-11-23 15:21:00,27.8,25.5,30.01,West,278,9.2,9.2,91,0.00,CLR,,0.00,WeatherDisplay:10.37,2013-11-23 20:21:00,
2013-11-23 15:27:00,27.7,25.4,30.01,West,280,6.0,6.0,91,0.00,CLR,,0.00,WeatherDisplay:10.37,2013-11-23 20:27:00,
2013-11-23 15:32:00,27.7,25.4,30.00,West,259,9.2,9.2,91,0.00,CLR,,0.00,WeatherDisplay:10.37,2013-11-23 20:32:00,
2013-11-23 15:37:00,27.8,25.5,30.00,East,100,4.6,4.6,91,0.00,CLR,,0.00,WeatherDisplay:10.37,2013-11-23 20:37:00,
2013-11-23 15:42:00,27.8,25.5,30.00,West,262,6.9,6.9,91,0.00,CLR,,0.00,WeatherDisplay:10.37,2013-11-23 20:42:00,
2013-11-23 15:47:00,27.9,25.6,30.00,West,260,2.3,2.3,91,0.00,CLR,,0.00,WeatherDisplay:10.37,2013-11-23 20:47:00,
2013-11-23 15:52:00,27.9,25.6,30.01,WNW,302,3.5,3.5,91,0.00,CLR,,0.00,WeatherDisplay:10.37,2013-11-23 20:52:00,
2013-11-23 15:57:00,27.8,25.5,30.01,West,277,6.9,6.9,91,0.00,CLR,,0.00,WeatherDisplay:10.37,2013-11-23 20:57:00,
2013-11-23 16:02:00,27.4,25.4,30.01,West,267,11.5,11.5,92,0.00,CLR,,0.00,WeatherDisplay:10.37,2013-11-23 21:02:00,
2013-11-23 16:07:00,27.1,24.8,30.02,North,10,6.0,6.0,91,0.00,CLR,,0.00,WeatherDisplay:10.37,2013-11-23 21:07:00,
2013-11-23 16:12:00,27.0,24.7,30.01,WNW,285,8.1,8.1,91,0.00,CLR,,0.00,WeatherDisplay:10.37,2013-11-23 21:12:00,
2013-11-23 16:17:00,27.0,24.7,30.01,WSW,256,6.9,6.9,91,0.00,CLR,,0.00,WeatherDisplay:10.37,2013-11-23 21:17:00,
2013-11-23 16:22:00,26.9,24.6,30.02,West,273,11.5,11.5,91,0.00,CLR,,0.00,WeatherDisplay:10.37,2013-11-23 21:22:00,
2013-11-23 16:27:00,26.7,24.4,30.02,NW,321,8.1,8.1,91,0.00,CLR,,0.00,WeatherDisplay:10.37,2013-11-23 21:27:00,
2013-11-23 16:32:00,26.5,24.2,30.02,West,263,4.6,4.6,91,0.00,CLR,,0.00,WeatherDisplay:10.37,2013-11-23 21:32:00,
2013-11-23 16:37:00,26.4,24.1,30.02,WNW,283,9.2,9.2,91,0.00,CLR,,0.00,WeatherDisplay:10.37,2013-11-23 21:37:00,
2013-11-23 16:42:00,26.2,23.9,30.03,NW,321,6.9,6.9,91,0.00,CLR,,0.00,WeatherDisplay:10.37,2013-11-23 21:42:00,
2013-11-23 16:47:00,26.0,23.7,30.03,WNW,284,11.5,11.5,91,0.00,CLR,,0.00,WeatherDisplay:10.37,2013-11-23 21:47:00,
2013-11-23 16:52:00,25.8,23.5,30.03,West,259,10.4,10.4,91,0.00,CLR,,0.00,WeatherDisplay:10.37,2013-11-23 21:52:00,
2013-11-23 16:57:00,25.7,23.4,30.04,WNW,282,4.0,4.0,91,0.00,CLR,,0.00,WeatherDisplay:10.37,2013-11-23 21:57:00,
2013-11-23 17:02:00,25.6,23.3,30.03,WSW,253,6.9,6.9,91,0.00,CLR,,0.00,WeatherDisplay:10.37,2013-11-23 22:02:00,
2013-11-23 17:07:00,25.5,23.2,30.03,NW,308,3.5,3.5,91,0.00,CLR,,0.00,WeatherDisplay:10.37,2013-11-23 22:07:00,
2013-11-23 17:12:00,25.4,23.1,30.04,WNW,293,5.8,5.8,91,0.00,CLR,,0.00,WeatherDisplay:10.37,2013-11-23 22:12:00,
2013-11-23 17:17:00,25.5,23.2,30.04,NNW,340,6.0,6.0,91,0.00,CLR,,0.00,WeatherDisplay:10.37,2013-11-23 22:17:00,
2013-11-23 17:22:00,25.3,23.0,30.04,West,265,10.4,10.4,91,0.00,CLR,,0.00,WeatherDisplay:10.37,2013-11-23 22:22:00,
2013-11-23 17:27:00,25.2,22.9,30.04,NNW,333,8.1,8.1,91,0.00,CLR,,0.00,WeatherDisplay:10.37,2013-11-23 22:27:00,
2013-11-23 17:32:00,25.1,23.1,30.05,NNW,339,11.5,11.5,92,0.00,CLR,,0.00,WeatherDisplay:10.37,2013-11-23 22:32:00,
2013-11-23 17:37:00,24.9,22.9,30.05,NE,41,5.8,5.8,92,0.00,CLR,,0.00,WeatherDisplay:10.37,2013-11-23 22:37:00,
2013-11-23 17:42:00,24.8,22.8,30.05,NW,307,11.0,11.0,92,0.00,CLR,,0.00,WeatherDisplay:10.37,2013-11-23 22:42:00,
2013-11-23 17:47:00,24.7,22.7,30.05,WNW,292,8.1,8.1,92,0.00,CLR,,0.00,WeatherDisplay:10.37,2013-11-23 22:47:00,
2013-11-23 17:52:00,24.6,22.6,30.05,NNE,16,8.1,8.1,92,0.00,CLR,,0.00,WeatherDisplay:10.37,2013-11-23 22:52:00,
2013-11-23 17:57:00,24.4,22.4,30.05,SW,226,6.9,6.9,92,0.00,CLR,,0.00,WeatherDisplay:10.37,2013-11-23 22:57:00,
2013-11-23 18:02:00,24.3,22.3,30.05,West,275,13.0,13.0,92,0.00,CLR,,0.00,WeatherDisplay:10.37,2013-11-23 23:02:00,
2013-11-23 18:07:00,24.2,22.2,30.05,WNW,284,8.0,8.0,92,0.00,CLR,,0.00,WeatherDisplay:10.37,2013-11-23 23:07:00,
2013-11-23 18:09:00,24.2,22.2,30.05,WNW,285,6.9,6.9,92,0.00,CLR,,0.00,WeatherDisplay:10.37,2013-11-23 23:09:00,
2013-11-23 18:14:00,24.2,22.2,30.05,WNW,297,9.2,9.2,92,0.00,CLR,,0.00,WeatherDisplay:10.37,2013-11-23 23:14:00,
2013-11-23 18:19:00,24.2,22.0,30.06,West,273,4.6,4.6,91,0.00,CLR,,0.00,WeatherDisplay:10.37,2013-11-23 23:19:00,
2013-11-23 18:25:00,24.2,22.0,30.06,WNW,294,5.8,5.8,91,0.00,CLR,,0.00,WeatherDisplay:10.37,2013-11-23 23:25:00,
2013-11-23 18:30:00,24.0,21.8,30.06,West,273,11.5,11.5,91,0.00,CLR,,0.00,WeatherDisplay:10.37,2013-11-23 23:30:00,
2013-11-23 18:35:00,23.7,21.5,30.05,WNW,295,3.0,3.0,91,0.00,CLR,,0.00,WeatherDisplay:10.37,2013-11-23 23:35:00,
2013-11-23 18:40:00,23.6,21.4,30.06,NW,321,10.4,10.4,91,0.00,CLR,,0.00,WeatherDisplay:10.37,2013-11-23 23:40:00,
2013-11-23 18:45:00,23.2,20.4,30.06,WNW,287,11.5,11.5,89,0.00,CLR,,0.00,WeatherDisplay:10.37,2013-11-23 23:45:00,
2013-11-23 18:50:00,22.9,20.4,30.07,SE,129,3.5,3.5,90,0.00,CLR,,0.00,WeatherDisplay:10.37,2013-11-23 23:50:00,
2013-11-23 18:55:00,22.8,20.6,30.06,West,276,5.8,5.8,91,0.00,CLR,,0.00,WeatherDisplay:10.37,2013-11-23 23:55:00,
2013-11-23 19:00:00,22.8,20.6,30.06,WNW,290,4.6,4.6,91,0.00,CLR,,0.00,WeatherDisplay:10.37,2013-11-24 00:00:00,
2013-11-23 19:05:00,22.9,20.4,30.07,West,271,12.7,12.7,90,0.00,CLR,,0.00,WeatherDisplay:10.37,2013-11-24 00:05:00,
2013-11-23 19:10:00,22.9,20.1,30.07,NNW,336,7.0,7.0,89,0.00,CLR,,0.00,WeatherDisplay:10.37,2013-11-24 00:10:00,
2013-11-23 19:15:00,22.9,20.1,30.07,WNW,294,8.1,8.1,89,0.00,CLR,,0.00,WeatherDisplay:10.37,2013-11-24 00:15:00,
2013-11-23 19:20:00,22.9,20.1,30.07,West,272,5.8,5.8,89,0.00,CLR,,0.00,WeatherDisplay:10.37,2013-11-24 00:20:00,
2013-11-23 19:25:00,22.9,20.4,30.08,NW,326,4.6,4.6,90,0.00,CLR,,0.00,WeatherDisplay:10.37,2013-11-24 00:25:00,
2013-11-23 19:30:00,22.6,20.1,30.08,North,8,15.0,15.0,90,0.00,CLR,,0.00,WeatherDisplay:10.37,2013-11-24 00:30:00,
2013-11-23 19:35:00,22.3,20.1,30.08,South,191,5.0,5.0,91,0.00,CLR,,0.00,WeatherDisplay:10.37,2013-11-24 00:35:00,
2013-11-23 19:40:00,22.1,19.9,30.08,NE,53,3.5,0.0,91,0.00,CLR,,0.00,WeatherDisplay:10.37,2013-11-24 00:40:00,
2013-11-23 19:45:00,21.9,19.7,30.09,WNW,282,9.0,9.0,91,0.00,CLR,,0.00,WeatherDisplay:10.37,2013-11-24 00:45:00,
2013-11-23 19:50:00,21.9,19.2,30.08,WNW,289,4.6,4.6,89,0.00,CLR,,0.00,WeatherDisplay:10.37,2013-11-24 00:50:00,
2013-11-23 19:55:00,22.0,18.7,30.09,WNW,297,10.0,10.0,87,0.00,CLR,,0.00,WeatherDisplay:10.37,2013-11-24 00:55:00,
2013-11-23 20:00:00,21.9,18.1,30.08,West,267,4.6,4.6,85,0.00,CLR,,0.00,WeatherDisplay:10.37,2013-11-24 01:00:00,
2013-11-23 20:05:00,21.8,17.7,30.09,WSW,253,15.0,15.0,84,0.00,CLR,,0.00,WeatherDisplay:10.37,2013-11-24 01:05:00,
2013-11-23 20:10:00,21.9,17.2,30.09,WNW,300,11.5,11.5,82,0.00,CLR,,0.00,WeatherDisplay:10.37,2013-11-24 01:10:00,
2013-11-23 20:15:00,21.8,17.2,30.09,SSW,207,9.2,9.2,82,0.00,CLR,,0.00,WeatherDisplay:10.37,2013-11-24 01:15:00,
2013-11-23 20:20:00,21.7,16.8,30.09,West,274,13.8,13.8,81,0.00,CLR,,0.00,WeatherDisplay:10.37,2013-11-24 01:20:00,
2013-11-23 20:25:00,21.8,16.3,30.09,WNW,282,6.9,6.9,79,0.00,CLR,,0.00,WeatherDisplay:10.37,2013-11-24 01:25:00,
2013-11-23 20:30:00,21.8,15.7,30.10,WNW,291,20.7,20.7,77,0.00,CLR,,0.00,WeatherDisplay:10.37,2013-11-24 01:30:00,
2013-11-23 20:35:00,21.7,15.0,30.10,West,273,16.1,16.1,75,0.00,CLR,,0.00,WeatherDisplay:10.37,2013-11-24 01:35:00,
2013-11-23 20:40:00,21.7,13.7,30.10,West,273,13.8,13.8,71,0.00,CLR,,0.00,WeatherDisplay:10.37,2013-11-24 01:40:00,
2013-11-23 20:45:00,21.6,12.7,30.10,West,269,16.1,16.1,68,0.00,CLR,,0.00,WeatherDisplay:10.37,2013-11-24 01:45:00,
2013-11-23 20:50:00,21.5,12.2,30.09,West,278,17.3,17.3,67,0.00,CLR,,0.00,WeatherDisplay:10.37,2013-11-24 01:50:00,
2013-11-23 20:55:00,21.5,11.2,30.10,WNW,282,16.1,16.1,64,0.00,CLR,,0.00,WeatherDisplay:10.37,2013-11-24 01:55:00,
2013-11-23 21:00:00,21.4,11.5,30.10,NNW,345,11.5,11.5,65,0.00,CLR,,0.00,WeatherDisplay:10.37,2013-11-24 02:00:00,
2013-11-23 21:05:00,21.5,11.9,30.11,NNW,341,18.4,18.4,66,0.00,CLR,,0.00,WeatherDisplay:10.37,2013-11-24 02:05:00,
2013-11-23 21:10:00,21.5,11.2,30.11,NW,318,12.7,12.7,64,0.00,CLR,,0.00,WeatherDisplay:10.37,2013-11-24 02:10:00,
2013-11-23 21:15:00,21.5,11.5,30.10,WSW,252,10.4,10.4,65,0.00,CLR,,0.00,WeatherDisplay:10.37,2013-11-24 02:15:00,
2013-11-23 21:20:00,21.3,11.4,30.11,West,267,9.2,9.2,65,0.00,CLR,,0.00,WeatherDisplay:10.37,2013-11-24 02:20:00,
2013-11-23 21:25:00,21.3,11.7,30.11,WSW,253,25.3,25.3,66,0.00,CLR,,0.00,WeatherDisplay:10.37,2013-11-24 02:25:00,
2013-11-23 21:30:00,21.3,12.0,30.10,NW,321,11.5,11.5,67,0.00,CLR,,0.00,WeatherDisplay:10.37,2013-11-24 02:30:00,
2013-11-23 21:35:00,21.4,12.5,30.11,South,169,17.3,17.3,68,0.00,CLR,,0.00,WeatherDisplay:10.37,2013-11-24 02:35:00,
2013-11-23 21:40:00,21.4,12.1,30.12,West,273,9.2,9.2,67,0.00,CLR,,0.00,WeatherDisplay:10.37,2013-11-24 02:40:00,
2013-11-23 21:46:00,21.4,12.8,30.11,ENE,59,10.4,10.4,69,0.00,CLR,,0.00,WeatherDisplay:10.37,2013-11-24 02:46:00,
2013-11-23 21:51:00,21.3,12.7,30.12,North,350,9.2,9.2,69,0.00,CLR,,0.00,WeatherDisplay:10.37,2013-11-24 02:51:00,
2013-11-23 21:56:00,21.3,13.4,30.12,West,263,11.5,11.5,71,0.00,CLR,,0.00,WeatherDisplay:10.37,2013-11-24 02:56:00,
2013-11-23 22:01:00,21.3,13.4,30.12,West,278,6.9,6.9,71,0.00,CLR,,0.00,WeatherDisplay:10.37,2013-11-24 03:01:00,
2013-11-23 22:06:00,21.2,13.6,30.12,West,266,8.1,8.1,72,0.00,CLR,,0.00,WeatherDisplay:10.37,2013-11-24 03:06:00,
2013-11-23 22:11:00,21.1,13.2,30.12,West,263,11.0,11.0,71,0.00,CLR,,0.00,WeatherDisplay:10.37,2013-11-24 03:11:00,
2013-11-23 22:16:00,21.0,12.4,30.12,NW,305,13.8,13.8,69,0.00,CLR,,0.00,WeatherDisplay:10.37,2013-11-24 03:16:00,
2013-11-23 22:21:00,20.9,12.0,30.12,NNW,345,10.4,10.4,68,0.00,CLR,,0.00,WeatherDisplay:10.37,2013-11-24 03:21:00,
2013-11-23 22:26:00,20.8,12.2,30.12,WSW,249,6.9,6.9,69,0.00,CLR,,0.00,WeatherDisplay:10.37,2013-11-24 03:26:00,
2013-11-23 22:31:00,20.8,12.6,30.12,WSW,253,8.1,8.1,70,0.00,CLR,,0.00,WeatherDisplay:10.37,2013-11-24 03:31:00,
2013-11-23 22:36:00,20.7,12.5,30.12,WNW,285,19.6,19.6,70,0.00,CLR,,0.00,WeatherDisplay:10.37,2013-11-24 03:36:00,
2013-11-23 22:41:00,20.6,12.4,30.13,West,260,12.7,12.7,70,0.00,CLR,,0.00,WeatherDisplay:10.37,2013-11-24 03:41:00,
2013-11-23 22:46:00,20.6,12.4,30.13,West,277,13.8,13.8,70,0.00,CLR,,0.00,WeatherDisplay:10.37,2013-11-24 03:46:00,
2013-11-23 22:51:00,20.5,12.6,30.13,NW,326,16.0,16.0,71,0.00,CLR,,0.00,WeatherDisplay:10.37,2013-11-24 03:51:00,
2013-11-23 22:56:00,20.4,12.8,30.13,West,277,11.5,11.5,72,0.00,CLR,,0.00,WeatherDisplay:10.37,2013-11-24 03:56:00,
2013-11-23 23:01:00,20.3,13.0,30.13,WNW,299,8.1,8.1,73,0.00,CLR,,0.00,WeatherDisplay:10.37,2013-11-24 04:01:00,
2013-11-23 23:06:00,20.2,12.6,30.13,North,3,5.8,5.8,72,0.00,CLR,,0.00,WeatherDisplay:10.37,2013-11-24 04:06:00,
2013-11-23 23:11:00,20.1,12.5,30.13,NW,316,9.2,9.2,72,0.00,CLR,,0.00,WeatherDisplay:10.37,2013-11-24 04:11:00,
2013-11-23 23:16:00,20.1,12.8,30.14,WNW,283,11.5,11.5,73,0.00,CLR,,0.00,WeatherDisplay:10.37,2013-11-24 04:16:00,
2013-11-23 23:21:00,20.0,12.4,30.14,West,262,12.7,12.7,72,0.00,CLR,,0.00,WeatherDisplay:10.37,2013-11-24 04:21:00,
2013-11-23 23:26:00,19.9,12.6,30.14,NW,305,6.9,6.9,73,0.00,CLR,,0.00,WeatherDisplay:10.37,2013-11-24 04:26:00,
2013-11-23 23:31:00,19.8,12.5,30.14,WNW,285,6.9,6.9,73,0.00,CLR,,0.00,WeatherDisplay:10.37,2013-11-24 04:31:00,
2013-11-23 23:36:00,19.8,12.2,30.15,WNW,284,6.9,6.9,72,0.00,CLR,,0.00,WeatherDisplay:10.37,2013-11-24 04:36:00,
2013-11-23 23:41:00,19.8,12.8,30.14,NW,312,4.6,4.6,74,0.00,CLR,,0.00,WeatherDisplay:10.37,2013-11-24 04:41:00,
2013-11-23 23:46:00,19.7,12.8,30.14,WSW,248,12.7,12.7,74,0.00,CLR,,0.00,WeatherDisplay:10.37,2013-11-24 04:46:00,
2013-11-23 23:51:00,19.7,12.8,30.14,WNW,288,10.4,10.4,74,0.00,CLR,,0.00,WeatherDisplay:10.37,2013-11-24 04:51:00,
2013-11-23 23:56:00,19.6,13.3,30.14,WSW,250,4.6,4.6,76,0.00,CLR,,0.00,WeatherDisplay:10.37,2013-11-24 04:56:00,